createdAt,value
2018-11-14T00:00:05.618Z,8.33333333333
2018-11-14T00:00:18.047Z,8.33333333333
2018-11-14T00:00:30.480Z,8.33333333333
2018-11-14T00:00:42.910Z,8.33333333333
2018-11-14T00:00:55.300Z,8.33333333333
2018-11-14T00:01:07.796Z,8.33333333333
2018-11-14T00:01:20.423Z,8.38888888889
2018-11-14T00:01:32.805Z,8.33333333333
2018-11-14T00:01:45.192Z,8.33333333333
2018-11-14T00:01:57.580Z,8.38888888889
2018-11-14T00:02:09.982Z,8.38888888889
2018-11-14T00:02:22.403Z,8.38888888889
2018-11-14T00:02:34.789Z,8.38888888889
2018-11-14T00:02:47.171Z,8.38888888889
2018-11-14T00:02:59.632Z,8.38888888889
2018-11-14T00:03:12.054Z,8.38888888889
2018-11-14T00:03:24.592Z,8.38888888889
2018-11-14T00:03:37.031Z,8.38888888889
2018-11-14T00:03:49.451Z,8.38888888889
2018-11-14T00:04:01.850Z,8.38888888889
2018-11-14T00:04:14.275Z,8.38888888889
2018-11-14T00:04:26.676Z,8.38888888889
2018-11-14T00:04:39.059Z,8.38888888889
2018-11-14T00:04:51.622Z,8.38888888889
2018-11-14T00:05:04.018Z,8.38888888889
2018-11-14T00:05:16.533Z,8.38888888889
2018-11-14T00:05:29.041Z,8.38888888889
2018-11-14T00:05:41.461Z,8.38888888889
2018-11-14T00:05:53.838Z,8.38888888889
2018-11-14T00:06:06.235Z,8.44444444444
2018-11-14T00:06:18.644Z,8.44444444444
2018-11-14T00:06:31.040Z,8.44444444444
2018-11-14T00:06:43.513Z,8.38888888889
2018-11-14T00:06:55.912Z,8.44444444444
2018-11-14T00:07:08.323Z,8.44444444444
2018-11-14T00:07:20.789Z,8.44444444444
2018-11-14T00:07:33.211Z,8.44444444444
2018-11-14T00:07:45.587Z,8.44444444444
2018-11-14T00:07:57.990Z,8.44444444444
2018-11-14T00:08:10.394Z,8.44444444444
2018-11-14T00:08:22.784Z,8.44444444444
2018-11-14T00:08:35.197Z,8.44444444444
2018-11-14T00:08:47.637Z,8.44444444444
2018-11-14T00:09:00.057Z,8.44444444444
2018-11-14T00:09:12.517Z,8.44444444444
2018-11-14T00:09:25.268Z,8.5
2018-11-14T00:09:38.871Z,8.44444444444
2018-11-14T00:09:52.519Z,8.44444444444
2018-11-14T00:10:05.258Z,8.44444444444
2018-11-14T00:10:20.480Z,8.5
2018-11-14T00:10:33.000Z,8.5
2018-11-14T00:10:45.490Z,8.5
2018-11-14T00:10:57.885Z,8.44444444444
2018-11-14T00:11:10.319Z,8.5
2018-11-14T00:11:22.712Z,8.5
2018-11-14T00:11:35.105Z,8.5
2018-11-14T00:11:47.510Z,8.5
2018-11-14T00:12:00.232Z,8.5
2018-11-14T00:12:12.636Z,8.5
2018-11-14T00:12:25.072Z,8.5
2018-11-14T00:12:37.464Z,8.5
2018-11-14T00:12:49.867Z,8.5
2018-11-14T00:13:02.263Z,8.5
2018-11-14T00:13:14.677Z,8.55555555556
2018-11-14T00:13:27.064Z,8.5
2018-11-14T00:13:39.436Z,8.55555555556
2018-11-14T00:13:51.866Z,8.5
2018-11-14T00:14:04.466Z,8.55555555556
2018-11-14T00:14:16.854Z,8.5
2018-11-14T00:14:29.245Z,8.55555555556
2018-11-14T00:14:41.650Z,8.55555555556
2018-11-14T00:14:54.092Z,8.55555555556
2018-11-14T00:15:06.501Z,8.55555555556
2018-11-14T00:15:18.955Z,8.55555555556
2018-11-14T00:15:31.352Z,8.55555555556
2018-11-14T00:15:43.742Z,8.55555555556
2018-11-14T00:15:56.424Z,8.55555555556
2018-11-14T00:16:09.129Z,8.55555555556
2018-11-14T00:16:21.653Z,8.55555555556
2018-11-14T00:16:34.049Z,8.55555555556
2018-11-14T00:16:46.451Z,8.55555555556
2018-11-14T00:16:58.839Z,8.55555555556
2018-11-14T00:17:11.229Z,8.55555555556
2018-11-14T00:17:23.634Z,8.55555555556
2018-11-14T00:17:36.017Z,8.55555555556
2018-11-14T00:17:48.418Z,8.61111111111
2018-11-14T00:18:00.861Z,8.61111111111
2018-11-14T00:18:13.247Z,8.55555555556
2018-11-14T00:18:25.632Z,8.55555555556
2018-11-14T00:18:38.015Z,8.61111111111
2018-11-14T00:18:50.402Z,8.61111111111
2018-11-14T00:19:02.796Z,8.61111111111
2018-11-14T00:19:15.282Z,8.55555555556
2018-11-14T00:19:28.411Z,8.61111111111
2018-11-14T00:19:42.143Z,8.61111111111
2018-11-14T00:19:54.959Z,8.55555555556
2018-11-14T00:20:07.572Z,8.61111111111
2018-11-14T00:20:20.895Z,8.61111111111
2018-11-14T00:20:33.289Z,8.61111111111
2018-11-14T00:20:45.678Z,8.61111111111
2018-11-14T00:20:58.076Z,8.55555555556
2018-11-14T00:21:11.195Z,8.61111111111
2018-11-14T00:21:23.705Z,8.61111111111
2018-11-14T00:21:36.080Z,8.61111111111
2018-11-14T00:21:49.618Z,8.61111111111
2018-11-14T00:22:01.997Z,8.66666666667
2018-11-14T00:22:14.402Z,8.66666666667
2018-11-14T00:22:26.805Z,8.61111111111
2018-11-14T00:22:39.214Z,8.66666666667
2018-11-14T00:22:51.685Z,8.61111111111
2018-11-14T00:23:04.102Z,8.61111111111
2018-11-14T00:23:16.524Z,8.66666666667
2018-11-14T00:23:28.980Z,8.66666666667
2018-11-14T00:23:41.393Z,8.66666666667
2018-11-14T00:23:53.791Z,8.66666666667
2018-11-14T00:24:06.249Z,8.66666666667
2018-11-14T00:24:18.698Z,8.66666666667
2018-11-14T00:24:31.837Z,8.66666666667
2018-11-14T00:24:44.797Z,8.66666666667
2018-11-14T00:24:58.905Z,8.66666666667
2018-11-14T00:25:11.352Z,8.66666666667
2018-11-14T00:25:23.932Z,8.66666666667
2018-11-14T00:25:36.329Z,8.66666666667
2018-11-14T00:25:48.710Z,8.66666666667
2018-11-14T00:26:01.116Z,8.66666666667
2018-11-14T00:26:13.570Z,8.66666666667
2018-11-14T00:26:26.000Z,8.66666666667
2018-11-14T00:26:38.557Z,8.66666666667
2018-11-14T00:26:52.808Z,8.66666666667
2018-11-14T00:27:05.395Z,8.66666666667
2018-11-14T00:27:18.020Z,8.66666666667
2018-11-14T00:27:30.437Z,8.66666666667
2018-11-14T00:27:42.991Z,8.66666666667
2018-11-14T00:27:56.238Z,8.72222222222
2018-11-14T00:28:10.535Z,8.66666666667
2018-11-14T00:28:23.322Z,8.66666666667
2018-11-14T00:28:36.405Z,8.72222222222
2018-11-14T00:28:48.897Z,8.66666666667
2018-11-14T00:29:01.903Z,8.66666666667
2018-11-14T00:29:14.454Z,8.66666666667
2018-11-14T00:29:27.601Z,8.66666666667
2018-11-14T00:29:41.763Z,8.66666666667
2018-11-14T00:29:54.296Z,8.66666666667
2018-11-14T00:30:06.675Z,8.66666666667
2018-11-14T00:30:19.855Z,8.66666666667
2018-11-14T00:30:32.284Z,8.66666666667
2018-11-14T00:30:44.679Z,8.66666666667
2018-11-14T00:30:57.077Z,8.66666666667
2018-11-14T00:31:09.470Z,8.72222222222
2018-11-14T00:31:21.864Z,8.66666666667
2018-11-14T00:31:34.259Z,8.66666666667
2018-11-14T00:31:46.722Z,8.66666666667
2018-11-14T00:31:59.136Z,8.66666666667
2018-11-14T00:32:11.542Z,8.72222222222
2018-11-14T00:32:24.001Z,8.66666666667
2018-11-14T00:32:36.385Z,8.72222222222
2018-11-14T00:32:48.807Z,8.72222222222
2018-11-14T00:33:01.505Z,8.72222222222
2018-11-14T00:33:15.566Z,8.66666666667
2018-11-14T00:33:28.752Z,8.72222222222
2018-11-14T00:33:41.164Z,8.66666666667
2018-11-14T00:33:53.764Z,8.66666666667
2018-11-14T00:34:06.252Z,8.66666666667
2018-11-14T00:34:18.656Z,8.66666666667
2018-11-14T00:34:31.663Z,8.72222222222
2018-11-14T00:34:44.533Z,8.72222222222
2018-11-14T00:34:59.328Z,8.72222222222
2018-11-14T00:35:11.911Z,8.72222222222
2018-11-14T00:35:24.330Z,8.72222222222
2018-11-14T00:35:37.258Z,8.72222222222
2018-11-14T00:35:51.828Z,8.66666666667
2018-11-14T00:36:04.240Z,8.72222222222
2018-11-14T00:36:16.650Z,8.66666666667
2018-11-14T00:36:29.203Z,8.72222222222
2018-11-14T00:36:41.593Z,8.72222222222
2018-11-14T00:36:54.007Z,8.72222222222
2018-11-14T00:37:06.773Z,8.72222222222
2018-11-14T00:37:19.159Z,8.66666666667
2018-11-14T00:37:31.568Z,8.72222222222
2018-11-14T00:37:44.019Z,8.72222222222
2018-11-14T00:37:56.428Z,8.72222222222
2018-11-14T00:38:08.823Z,8.72222222222
2018-11-14T00:38:21.201Z,8.72222222222
2018-11-14T00:38:33.598Z,8.72222222222
2018-11-14T00:38:45.994Z,8.72222222222
2018-11-14T00:38:58.406Z,8.72222222222
2018-11-14T00:39:10.788Z,8.72222222222
2018-11-14T00:39:23.170Z,8.72222222222
2018-11-14T00:39:35.567Z,8.72222222222
2018-11-14T00:39:48.008Z,8.72222222222
2018-11-14T00:40:00.403Z,8.72222222222
2018-11-14T00:40:12.807Z,8.72222222222
2018-11-14T00:40:25.225Z,8.72222222222
2018-11-14T00:40:37.612Z,8.72222222222
2018-11-14T00:40:50.023Z,8.72222222222
2018-11-14T00:41:02.537Z,8.66666666667
2018-11-14T00:41:14.926Z,8.72222222222
2018-11-14T00:41:27.404Z,8.72222222222
2018-11-14T00:41:39.801Z,8.72222222222
2018-11-14T00:41:52.194Z,8.72222222222
2018-11-14T00:42:04.603Z,8.72222222222
2018-11-14T00:42:16.989Z,8.72222222222
2018-11-14T00:42:29.379Z,8.72222222222
2018-11-14T00:42:41.911Z,8.72222222222
2018-11-14T00:42:54.304Z,8.72222222222
2018-11-14T00:43:06.751Z,8.72222222222
2018-11-14T00:43:19.139Z,8.72222222222
2018-11-14T00:43:31.536Z,8.72222222222
2018-11-14T00:43:43.924Z,8.72222222222
2018-11-14T00:43:56.298Z,8.72222222222
2018-11-14T00:44:08.693Z,8.72222222222
2018-11-14T00:44:21.234Z,8.72222222222
2018-11-14T00:44:33.608Z,8.72222222222
2018-11-14T00:44:45.997Z,8.72222222222
2018-11-14T00:44:58.401Z,8.72222222222
2018-11-14T00:45:10.801Z,8.72222222222
2018-11-14T00:45:23.445Z,8.72222222222
2018-11-14T00:45:35.845Z,8.72222222222
2018-11-14T00:45:48.229Z,8.72222222222
2018-11-14T00:46:00.618Z,8.72222222222
2018-11-14T00:46:12.992Z,8.72222222222
2018-11-14T00:46:25.387Z,8.72222222222
2018-11-14T00:46:37.822Z,8.72222222222
2018-11-14T00:46:50.194Z,8.72222222222
2018-11-14T00:47:02.590Z,8.72222222222
2018-11-14T00:47:15.104Z,8.72222222222
2018-11-14T00:47:27.511Z,8.72222222222
2018-11-14T00:47:40.034Z,8.72222222222
2018-11-14T00:47:52.464Z,8.72222222222
2018-11-14T00:48:04.869Z,8.72222222222
2018-11-14T00:48:17.263Z,8.72222222222
2018-11-14T00:48:29.653Z,8.77777777778
2018-11-14T00:48:42.049Z,8.72222222222
2018-11-14T00:48:54.451Z,8.72222222222
2018-11-14T00:49:06.840Z,8.72222222222
2018-11-14T00:49:19.216Z,8.72222222222
2018-11-14T00:49:31.605Z,8.72222222222
2018-11-14T00:49:43.972Z,8.72222222222
2018-11-14T00:49:56.695Z,8.72222222222
2018-11-14T00:50:09.091Z,8.72222222222
2018-11-14T00:50:21.480Z,8.72222222222
2018-11-14T00:50:33.920Z,8.72222222222
2018-11-14T00:50:46.314Z,8.77777777778
2018-11-14T00:50:58.704Z,8.72222222222
2018-11-14T00:51:11.104Z,8.72222222222
2018-11-14T00:51:23.500Z,8.72222222222
2018-11-14T00:51:35.883Z,8.72222222222
2018-11-14T00:51:48.326Z,8.72222222222
2018-11-14T00:52:00.897Z,8.72222222222
2018-11-14T00:52:13.555Z,8.72222222222
2018-11-14T00:52:25.921Z,8.66666666667
2018-11-14T00:52:38.324Z,8.72222222222
2018-11-14T00:52:50.722Z,8.72222222222
2018-11-14T00:53:03.125Z,8.72222222222
2018-11-14T00:53:15.551Z,8.72222222222
2018-11-14T00:53:27.974Z,8.72222222222
2018-11-14T00:53:40.555Z,8.72222222222
2018-11-14T00:53:52.945Z,8.72222222222
2018-11-14T00:54:05.350Z,8.72222222222
2018-11-14T00:54:17.739Z,8.72222222222
2018-11-14T00:54:30.134Z,8.72222222222
2018-11-14T00:54:42.622Z,8.72222222222
2018-11-14T00:54:55.019Z,8.72222222222
2018-11-14T00:55:07.434Z,8.72222222222
2018-11-14T00:55:19.824Z,8.72222222222
2018-11-14T00:55:32.201Z,8.72222222222
2018-11-14T00:55:44.604Z,8.72222222222
2018-11-14T00:55:56.999Z,8.66666666667
2018-11-14T00:56:09.390Z,8.72222222222
2018-11-14T00:56:21.773Z,8.72222222222
2018-11-14T00:56:34.162Z,8.72222222222
2018-11-14T00:56:46.551Z,8.77777777778
2018-11-14T00:56:58.961Z,8.66666666667
2018-11-14T00:57:11.394Z,8.72222222222
2018-11-14T00:57:23.800Z,8.72222222222
2018-11-14T00:57:36.299Z,8.72222222222
2018-11-14T00:57:48.714Z,8.72222222222
2018-11-14T00:58:01.157Z,8.72222222222
2018-11-14T00:58:13.790Z,8.72222222222
2018-11-14T00:58:26.324Z,8.72222222222
2018-11-14T00:58:38.703Z,8.72222222222
2018-11-14T00:58:51.144Z,8.72222222222
2018-11-14T00:59:03.541Z,8.72222222222
2018-11-14T00:59:15.929Z,8.72222222222
2018-11-14T00:59:28.456Z,8.66666666667
2018-11-14T00:59:40.865Z,8.72222222222
2018-11-14T00:59:53.573Z,8.72222222222
2018-11-14T01:00:07.260Z,8.66666666667
2018-11-14T01:00:20.056Z,8.66666666667
2018-11-14T01:00:32.486Z,8.72222222222
2018-11-14T01:00:44.881Z,8.72222222222
2018-11-14T01:00:57.312Z,8.72222222222
2018-11-14T01:01:09.728Z,8.72222222222
2018-11-14T01:01:22.571Z,8.66666666667
2018-11-14T01:01:36.188Z,8.72222222222
2018-11-14T01:01:50.296Z,8.72222222222
2018-11-14T01:02:03.443Z,8.72222222222
2018-11-14T01:02:16.018Z,8.72222222222
2018-11-14T01:02:28.423Z,8.72222222222
2018-11-14T01:02:43.001Z,8.72222222222
2018-11-14T01:02:55.408Z,8.72222222222
2018-11-14T01:03:07.857Z,8.72222222222
2018-11-14T01:03:20.498Z,8.72222222222
2018-11-14T01:03:32.926Z,8.72222222222
2018-11-14T01:03:45.335Z,8.72222222222
2018-11-14T01:03:57.720Z,8.72222222222
2018-11-14T01:04:10.182Z,8.72222222222
2018-11-14T01:04:22.732Z,8.66666666667
2018-11-14T01:04:35.134Z,8.66666666667
2018-11-14T01:04:47.545Z,8.66666666667
2018-11-14T01:05:00.137Z,8.66666666667
2018-11-14T01:05:12.524Z,8.66666666667
2018-11-14T01:05:25.132Z,8.66666666667
2018-11-14T01:05:37.518Z,8.66666666667
2018-11-14T01:05:50.097Z,8.66666666667
2018-11-14T01:06:02.501Z,8.66666666667
2018-11-14T01:06:14.920Z,8.66666666667
2018-11-14T01:06:27.412Z,8.66666666667
2018-11-14T01:06:39.810Z,8.66666666667
2018-11-14T01:06:52.191Z,8.66666666667
2018-11-14T01:07:04.632Z,8.66666666667
2018-11-14T01:07:17.115Z,8.66666666667
2018-11-14T01:07:29.525Z,8.66666666667
2018-11-14T01:07:41.940Z,8.66666666667
2018-11-14T01:07:54.399Z,8.66666666667
2018-11-14T01:08:06.923Z,8.66666666667
2018-11-14T01:08:19.304Z,8.66666666667
2018-11-14T01:08:31.858Z,8.66666666667
2018-11-14T01:08:44.269Z,8.66666666667
2018-11-14T01:08:56.655Z,8.66666666667
2018-11-14T01:09:09.456Z,8.66666666667
2018-11-14T01:09:23.052Z,8.66666666667
2018-11-14T01:09:35.962Z,8.66666666667
2018-11-14T01:09:48.350Z,8.66666666667
2018-11-14T01:10:00.990Z,8.66666666667
2018-11-14T01:10:13.414Z,8.66666666667
2018-11-14T01:10:25.929Z,8.66666666667
2018-11-14T01:10:38.320Z,8.66666666667
2018-11-14T01:10:50.874Z,8.66666666667
2018-11-14T01:11:03.264Z,8.66666666667
2018-11-14T01:11:15.664Z,8.66666666667
2018-11-14T01:11:28.309Z,8.66666666667
2018-11-14T01:11:40.723Z,8.66666666667
2018-11-14T01:11:53.121Z,8.66666666667
2018-11-14T01:12:05.553Z,8.66666666667
2018-11-14T01:12:19.104Z,8.66666666667
2018-11-14T01:12:31.970Z,8.66666666667
2018-11-14T01:12:44.362Z,8.66666666667
2018-11-14T01:12:56.892Z,8.66666666667
2018-11-14T01:13:10.235Z,8.66666666667
2018-11-14T01:13:25.165Z,8.66666666667
2018-11-14T01:13:37.707Z,8.66666666667
2018-11-14T01:13:50.101Z,8.66666666667
2018-11-14T01:14:02.501Z,8.66666666667
2018-11-14T01:14:15.029Z,8.66666666667
2018-11-14T01:14:27.430Z,8.66666666667
2018-11-14T01:14:39.843Z,8.66666666667
2018-11-14T01:14:52.227Z,8.66666666667
2018-11-14T01:15:04.711Z,8.66666666667
2018-11-14T01:15:17.100Z,8.66666666667
2018-11-14T01:15:29.508Z,8.66666666667
2018-11-14T01:15:41.914Z,8.66666666667
2018-11-14T01:15:54.432Z,8.61111111111
2018-11-14T01:16:06.827Z,8.66666666667
2018-11-14T01:16:19.226Z,8.66666666667
2018-11-14T01:16:31.623Z,8.66666666667
2018-11-14T01:16:44.018Z,8.66666666667
2018-11-14T01:16:56.403Z,8.66666666667
2018-11-14T01:17:08.982Z,8.61111111111
2018-11-14T01:17:21.938Z,8.66666666667
2018-11-14T01:17:35.177Z,8.61111111111
2018-11-14T01:17:48.045Z,8.66666666667
2018-11-14T01:18:00.463Z,8.61111111111
2018-11-14T01:18:13.649Z,8.66666666667
2018-11-14T01:18:26.053Z,8.66666666667
2018-11-14T01:18:38.438Z,8.66666666667
2018-11-14T01:18:51.568Z,8.61111111111
2018-11-14T01:19:03.961Z,8.61111111111
2018-11-14T01:19:16.347Z,8.61111111111
2018-11-14T01:19:28.758Z,8.61111111111
2018-11-14T01:19:42.059Z,8.66666666667
2018-11-14T01:19:54.454Z,8.61111111111
2018-11-14T01:20:06.844Z,8.61111111111
2018-11-14T01:20:19.291Z,8.61111111111
2018-11-14T01:20:31.673Z,8.61111111111
2018-11-14T01:20:44.078Z,8.61111111111
2018-11-14T01:20:56.513Z,8.61111111111
2018-11-14T01:21:08.912Z,8.61111111111
2018-11-14T01:21:21.408Z,8.66666666667
2018-11-14T01:21:34.056Z,8.66666666667
2018-11-14T01:21:48.304Z,8.61111111111
2018-11-14T01:22:00.771Z,8.61111111111
2018-11-14T01:22:13.188Z,8.61111111111
2018-11-14T01:22:25.608Z,8.61111111111
2018-11-14T01:22:38.001Z,8.61111111111
2018-11-14T01:22:50.429Z,8.66666666667
2018-11-14T01:23:02.819Z,8.61111111111
2018-11-14T01:23:15.212Z,8.66666666667
2018-11-14T01:23:27.606Z,8.61111111111
2018-11-14T01:23:40.009Z,8.55555555556
2018-11-14T01:23:52.409Z,8.61111111111
2018-11-14T01:24:04.804Z,8.61111111111
2018-11-14T01:24:17.201Z,8.66666666667
2018-11-14T01:24:29.613Z,8.66666666667
2018-11-14T01:24:42.004Z,8.61111111111
2018-11-14T01:24:54.404Z,8.61111111111
2018-11-14T01:25:06.825Z,8.61111111111
2018-11-14T01:25:19.227Z,8.61111111111
2018-11-14T01:25:31.879Z,8.55555555556
2018-11-14T01:25:44.323Z,8.61111111111
2018-11-14T01:25:56.727Z,8.61111111111
2018-11-14T01:26:09.226Z,8.61111111111
2018-11-14T01:26:22.165Z,8.61111111111
2018-11-14T01:26:34.560Z,8.61111111111
2018-11-14T01:26:46.954Z,8.55555555556
2018-11-14T01:26:59.672Z,8.55555555556
2018-11-14T01:27:13.500Z,8.55555555556
2018-11-14T01:27:27.169Z,8.61111111111
2018-11-14T01:27:39.561Z,8.55555555556
2018-11-14T01:27:52.007Z,8.61111111111
2018-11-14T01:28:04.583Z,8.61111111111
2018-11-14T01:28:16.975Z,8.61111111111
2018-11-14T01:28:29.354Z,8.55555555556
2018-11-14T01:28:41.753Z,8.55555555556
2018-11-14T01:28:54.169Z,8.55555555556
2018-11-14T01:29:06.698Z,8.61111111111
2018-11-14T01:29:19.379Z,8.61111111111
2018-11-14T01:29:31.764Z,8.55555555556
2018-11-14T01:29:44.162Z,8.55555555556
2018-11-14T01:29:56.574Z,8.55555555556
2018-11-14T01:30:08.990Z,8.61111111111
2018-11-14T01:30:21.412Z,8.61111111111
2018-11-14T01:30:33.819Z,8.55555555556
2018-11-14T01:30:46.273Z,8.55555555556
2018-11-14T01:30:58.681Z,8.55555555556
2018-11-14T01:31:11.066Z,8.61111111111
2018-11-14T01:31:23.534Z,8.55555555556
2018-11-14T01:31:35.939Z,8.55555555556
2018-11-14T01:31:48.352Z,8.55555555556
2018-11-14T01:32:00.758Z,8.55555555556
2018-11-14T01:32:13.203Z,8.61111111111
2018-11-14T01:32:25.610Z,8.61111111111
2018-11-14T01:32:38.016Z,8.55555555556
2018-11-14T01:32:50.413Z,8.55555555556
2018-11-14T01:33:02.810Z,8.61111111111
2018-11-14T01:33:15.193Z,8.55555555556
2018-11-14T01:33:27.594Z,8.55555555556
2018-11-14T01:33:40.049Z,8.55555555556
2018-11-14T01:33:52.555Z,8.55555555556
2018-11-14T01:34:05.706Z,8.55555555556
2018-11-14T01:34:19.218Z,8.55555555556
2018-11-14T01:34:31.610Z,8.55555555556
2018-11-14T01:34:44.007Z,8.55555555556
2018-11-14T01:34:56.481Z,8.55555555556
2018-11-14T01:35:08.875Z,8.5
2018-11-14T01:35:21.335Z,8.5
2018-11-14T01:35:33.762Z,8.5
2018-11-14T01:35:46.634Z,8.55555555556
2018-11-14T01:36:01.071Z,8.55555555556
2018-11-14T01:36:13.469Z,8.55555555556
2018-11-14T01:36:26.295Z,8.5
2018-11-14T01:36:38.690Z,8.5
2018-11-14T01:36:51.090Z,8.5
2018-11-14T01:37:03.517Z,8.55555555556
2018-11-14T01:37:15.975Z,8.5
2018-11-14T01:37:28.364Z,8.5
2018-11-14T01:37:40.756Z,8.55555555556
2018-11-14T01:37:53.169Z,8.5
2018-11-14T01:38:05.612Z,8.5
2018-11-14T01:38:18.028Z,8.5
2018-11-14T01:38:30.452Z,8.5
2018-11-14T01:38:42.843Z,8.5
2018-11-14T01:38:55.237Z,8.5
2018-11-14T01:39:07.641Z,8.5
2018-11-14T01:39:20.124Z,8.5
2018-11-14T01:39:32.557Z,8.5
2018-11-14T01:39:44.933Z,8.5
2018-11-14T01:39:57.334Z,8.5
2018-11-14T01:40:09.730Z,8.5
2018-11-14T01:40:22.124Z,8.5
2018-11-14T01:40:34.519Z,8.5
2018-11-14T01:40:46.913Z,8.5
2018-11-14T01:40:59.380Z,8.5
2018-11-14T01:41:12.537Z,8.5
2018-11-14T01:41:24.935Z,8.5
2018-11-14T01:41:37.345Z,8.5
2018-11-14T01:41:49.744Z,8.5
2018-11-14T01:42:02.143Z,8.5
2018-11-14T01:42:14.560Z,8.44444444444
2018-11-14T01:42:26.961Z,8.5
2018-11-14T01:42:39.349Z,8.44444444444
2018-11-14T01:42:51.744Z,8.5
2018-11-14T01:43:04.238Z,8.44444444444
2018-11-14T01:43:16.640Z,8.44444444444
2018-11-14T01:43:29.019Z,8.44444444444
2018-11-14T01:43:41.410Z,8.44444444444
2018-11-14T01:43:53.802Z,8.44444444444
2018-11-14T01:44:06.181Z,8.44444444444
2018-11-14T01:44:18.610Z,8.5
2018-11-14T01:44:31.325Z,8.44444444444
2018-11-14T01:44:43.712Z,8.44444444444
2018-11-14T01:44:56.178Z,8.44444444444
2018-11-14T01:45:08.587Z,8.44444444444
2018-11-14T01:45:21.099Z,8.44444444444
2018-11-14T01:45:33.513Z,8.44444444444
2018-11-14T01:45:45.917Z,8.44444444444
2018-11-14T01:45:58.352Z,8.44444444444
2018-11-14T01:46:10.749Z,8.44444444444
2018-11-14T01:46:23.145Z,8.44444444444
2018-11-14T01:46:35.537Z,8.44444444444
2018-11-14T01:46:47.923Z,8.44444444444
2018-11-14T01:47:00.335Z,8.44444444444
2018-11-14T01:47:12.800Z,8.38888888889
2018-11-14T01:47:25.195Z,8.44444444444
2018-11-14T01:47:37.572Z,8.38888888889
2018-11-14T01:47:50.197Z,8.44444444444
2018-11-14T01:48:02.588Z,8.38888888889
2018-11-14T01:48:14.973Z,8.38888888889
2018-11-14T01:48:27.361Z,8.38888888889
2018-11-14T01:48:39.770Z,8.38888888889
2018-11-14T01:48:52.164Z,8.38888888889
2018-11-14T01:49:04.571Z,8.38888888889
2018-11-14T01:49:16.963Z,8.38888888889
2018-11-14T01:49:29.356Z,8.44444444444
2018-11-14T01:49:41.744Z,8.38888888889
2018-11-14T01:49:54.505Z,8.38888888889
2018-11-14T01:50:06.915Z,8.38888888889
2018-11-14T01:50:19.343Z,8.38888888889
2018-11-14T01:50:31.733Z,8.38888888889
2018-11-14T01:50:44.125Z,8.38888888889
2018-11-14T01:50:56.524Z,8.38888888889
2018-11-14T01:51:08.917Z,8.38888888889
2018-11-14T01:51:21.322Z,8.38888888889
2018-11-14T01:51:33.711Z,8.38888888889
2018-11-14T01:51:46.088Z,8.38888888889
2018-11-14T01:51:58.585Z,8.33333333333
2018-11-14T01:52:11.012Z,8.38888888889
2018-11-14T01:52:23.427Z,8.38888888889
2018-11-14T01:52:35.824Z,8.38888888889
2018-11-14T01:52:48.242Z,8.38888888889
2018-11-14T01:53:00.679Z,8.38888888889
2018-11-14T01:53:13.076Z,8.33333333333
2018-11-14T01:53:25.501Z,8.38888888889
2018-11-14T01:53:38.037Z,8.38888888889
2018-11-14T01:53:50.489Z,8.38888888889
2018-11-14T01:54:02.951Z,8.38888888889
2018-11-14T01:54:15.335Z,8.38888888889
2018-11-14T01:54:27.731Z,8.33333333333
2018-11-14T01:54:40.115Z,8.33333333333
2018-11-14T01:54:52.670Z,8.38888888889
2018-11-14T01:55:05.070Z,8.38888888889
2018-11-14T01:55:17.629Z,8.38888888889
2018-11-14T01:55:30.031Z,8.33333333333
2018-11-14T01:55:42.430Z,8.38888888889
2018-11-14T01:55:54.827Z,8.38888888889
2018-11-14T01:56:07.216Z,8.38888888889
2018-11-14T01:56:19.619Z,8.38888888889
2018-11-14T01:56:32.029Z,8.38888888889
2018-11-14T01:56:44.423Z,8.38888888889
2018-11-14T01:56:56.804Z,8.38888888889
2018-11-14T01:57:09.209Z,8.33333333333
2018-11-14T01:57:21.591Z,8.38888888889
2018-11-14T01:57:33.998Z,8.33333333333
2018-11-14T01:57:46.401Z,8.33333333333
2018-11-14T01:57:58.822Z,8.33333333333
2018-11-14T01:58:11.229Z,8.33333333333
2018-11-14T01:58:23.628Z,8.33333333333
2018-11-14T01:58:36.024Z,8.33333333333
2018-11-14T01:58:48.424Z,8.33333333333
2018-11-14T01:59:00.817Z,8.33333333333
2018-11-14T01:59:13.278Z,8.38888888889
2018-11-14T01:59:25.697Z,8.33333333333
2018-11-14T01:59:38.080Z,8.33333333333
2018-11-14T01:59:50.475Z,8.33333333333
2018-11-14T02:00:02.908Z,8.33333333333
2018-11-14T02:00:15.349Z,8.33333333333
2018-11-14T02:00:27.801Z,8.33333333333
2018-11-14T02:00:40.221Z,8.33333333333
2018-11-14T02:00:52.620Z,8.33333333333
2018-11-14T02:01:05.028Z,8.33333333333
2018-11-14T02:01:17.608Z,8.33333333333
2018-11-14T02:01:30.019Z,8.33333333333
2018-11-14T02:01:42.442Z,8.33333333333
2018-11-14T02:01:54.866Z,8.33333333333
2018-11-14T02:02:07.266Z,8.33333333333
2018-11-14T02:02:19.653Z,8.33333333333
2018-11-14T02:02:32.055Z,8.33333333333
2018-11-14T02:02:44.424Z,8.33333333333
2018-11-14T02:02:56.834Z,8.33333333333
2018-11-14T02:03:09.232Z,8.33333333333
2018-11-14T02:03:21.765Z,8.33333333333
2018-11-14T02:03:34.169Z,8.33333333333
2018-11-14T02:03:46.570Z,8.33333333333
2018-11-14T02:03:58.957Z,8.33333333333
2018-11-14T02:04:11.418Z,8.33333333333
2018-11-14T02:04:23.804Z,8.33333333333
2018-11-14T02:04:36.198Z,8.33333333333
2018-11-14T02:04:48.580Z,8.33333333333
2018-11-14T02:05:01.117Z,8.33333333333
2018-11-14T02:05:13.572Z,8.33333333333
2018-11-14T02:05:26.136Z,8.33333333333
2018-11-14T02:05:38.550Z,8.33333333333
2018-11-14T02:05:50.928Z,8.33333333333
2018-11-14T02:06:03.339Z,8.33333333333
2018-11-14T02:06:15.724Z,8.33333333333
2018-11-14T02:06:28.296Z,8.33333333333
2018-11-14T02:06:40.672Z,8.33333333333
2018-11-14T02:06:53.063Z,8.33333333333
2018-11-14T02:07:05.446Z,8.33333333333
2018-11-14T02:07:17.939Z,8.33333333333
2018-11-14T02:07:30.339Z,8.33333333333
2018-11-14T02:07:42.743Z,8.33333333333
2018-11-14T02:07:55.139Z,8.33333333333
2018-11-14T02:08:07.552Z,8.33333333333
2018-11-14T02:08:19.945Z,8.33333333333
2018-11-14T02:08:32.347Z,8.33333333333
2018-11-14T02:08:44.736Z,8.33333333333
2018-11-14T02:08:57.109Z,8.33333333333
2018-11-14T02:09:09.502Z,8.33333333333
2018-11-14T02:09:21.911Z,8.33333333333
2018-11-14T02:09:34.308Z,8.33333333333
2018-11-14T02:09:46.698Z,8.33333333333
2018-11-14T02:09:59.079Z,8.33333333333
2018-11-14T02:10:11.535Z,8.33333333333
2018-11-14T02:10:24.012Z,8.33333333333
2018-11-14T02:10:36.402Z,8.33333333333
2018-11-14T02:10:48.880Z,8.33333333333